sensor_id;sensor_type;location;lat;lon;timestamp;temperature;humidity
4451;DHT22;2238;50.180;9.230;2022-10-17T00:02:23;18.40;99.90
4451;DHT22;2238;50.180;9.230;2022-10-17T00:05:23;18.30;99.90
4451;DHT22;2238;50.180;9.230;2022-10-17T00:08:24;18.00;99.90
4451;DHT22;2238;50.180;9.230;2022-10-17T00:11:25;17.70;99.90
4451;DHT22;2238;50.180;9.230;2022-10-17T00:14:25;17.70;99.90
4451;DHT22;2238;50.180;9.230;2022-10-17T00:17:26;21.10;99.90
4451;DHT22;2238;50.180;9.230;2022-10-17T00:20:27;17.60;99.90
4451;DHT22;2238;50.180;9.230;2022-10-17T00:23:29;17.60;99.90
4451;DHT22;2238;50.180;9.230;2022-10-17T00:26:30;17.70;99.90
4451;DHT22;2238;50.180;9.230;2022-10-17T00:29:31;17.70;99.90
4451;DHT22;2238;50.180;9.230;2022-10-17T00:35:32;18.00;99.90
4451;DHT22;2238;50.180;9.230;2022-10-17T00:38:33;18.30;99.90
4451;DHT22;2238;50.180;9.230;2022-10-17T00:41:34;18.40;99.90
4451;DHT22;2238;50.180;9.230;2022-10-17T00:47:35;18.30;99.90
4451;DHT22;2238;50.180;9.230;2022-10-17T00:50:38;18.30;99.90
4451;DHT22;2238;50.180;9.230;2022-10-17T00:53:40;18.30;99.90
4451;DHT22;2238;50.180;9.230;2022-10-17T00:56:42;18.20;99.90
4451;DHT22;2238;50.180;9.230;2022-10-17T00:59:46;18.10;99.90
4451;DHT22;2238;50.180;9.230;2022-10-17T01:05:49;18.40;99.90
4451;DHT22;2238;50.180;9.230;2022-10-17T01:08:50;18.40;99.90
4451;DHT22;2238;50.180;9.230;2022-10-17T01:12:30;18.30;99.90
4451;DHT22;2238;50.180;9.230;2022-10-17T01:15:56;18.30;99.90
4451;DHT22;2238;50.180;9.230;2022-10-17T01:22:26;18.20;99.90
4451;DHT22;2238;50.180;9.230;2022-10-17T01:35:37;17.70;99.90
4451;DHT22;2238;50.180;9.230;2022-10-17T01:38:52;17.40;99.90
4451;DHT22;2238;50.180;9.230;2022-10-17T01:42:32;17.20;99.90
4451;DHT22;2238;50.180;9.230;2022-10-17T01:48:45;17.00;99.90
4451;DHT22;2238;50.180;9.230;2022-10-17T01:51:48;16.80;99.90
4451;DHT22;2238;50.180;9.230;2022-10-17T01:55:13;18.80;99.90
4451;DHT22;2238;50.180;9.230;2022-10-17T01:58:33;16.70;99.90
4451;DHT22;2238;50.180;9.230;2022-10-17T02:01:36;16.50;99.90
4451;DHT22;2238;50.180;9.230;2022-10-17T02:04:37;16.40;99.90
4451;DHT22;2238;50.180;9.230;2022-10-17T02:07:42;16.50;99.90
4451;DHT22;2238;50.180;9.230;2022-10-17T02:17:38;16.30;99.90
4451;DHT22;2238;50.180;9.230;2022-10-17T02:20:49;16.10;99.90
4451;DHT22;2238;50.180;9.230;2022-10-17T02:23:55;16.10;99.90
4451;DHT22;2238;50.180;9.230;2022-10-17T02:30:31;16.00;99.90
4451;DHT22;2238;50.180;9.230;2022-10-17T02:34:03;16.40;99.90
4451;DHT22;2238;50.180;9.230;2022-10-17T02:37:06;16.50;99.90
4451;DHT22;2238;50.180;9.230;2022-10-17T02:40:09;16.60;99.90
4451;DHT22;2238;50.180;9.230;2022-10-17T02:43:12;16.40;99.90
4451;DHT22;2238;50.180;9.230;2022-10-17T02:46:14;16.30;99.90
4451;DHT22;2238;50.180;9.230;2022-10-17T02:49:31;16.20;99.90
4451;DHT22;2238;50.180;9.230;2022-10-17T02:52:40;16.00;99.90
4451;DHT22;2238;50.180;9.230;2022-10-17T02:55:57;16.10;99.90
4451;DHT22;2238;50.180;9.230;2022-10-17T02:58:59;16.50;99.90
4451;DHT22;2238;50.180;9.230;2022-10-17T03:02:05;16.60;99.90
4451;DHT22;2238;50.180;9.230;2022-10-17T03:05:06;16.40;99.90
4451;DHT22;2238;50.180;9.230;2022-10-17T03:08:07;16.40;99.90
4451;DHT22;2238;50.180;9.230;2022-10-17T03:11:08;16.70;99.90
4451;DHT22;2238;50.180;9.230;2022-10-17T03:17:09;17.70;99.90
4451;DHT22;2238;50.180;9.230;2022-10-17T03:20:10;17.50;99.90
4451;DHT22;2238;50.180;9.230;2022-10-17T03:23:10;20.00;99.90
4451;DHT22;2238;50.180;9.230;2022-10-17T03:26:11;17.50;99.90
4451;DHT22;2238;50.180;9.230;2022-10-17T03:29:12;17.40;99.90
4451;DHT22;2238;50.180;9.230;2022-10-17T03:35:14;17.50;99.90
4451;DHT22;2238;50.180;9.230;2022-10-17T03:38:14;17.80;99.90
4451;DHT22;2238;50.180;9.230;2022-10-17T03:41:15;17.80;99.90
4451;DHT22;2238;50.180;9.230;2022-10-17T03:44:16;17.60;99.90
4451;DHT22;2238;50.180;9.230;2022-10-17T03:50:17;17.60;99.90
4451;DHT22;2238;50.180;9.230;2022-10-17T03:53:18;17.80;99.90
4451;DHT22;2238;50.180;9.230;2022-10-17T03:56:21;17.80;99.90
4451;DHT22;2238;50.180;9.230;2022-10-17T04:02:22;17.90;99.90
4451;DHT22;2238;50.180;9.230;2022-10-17T04:05:23;18.00;99.90
4451;DHT22;2238;50.180;9.230;2022-10-17T04:08:24;18.00;99.90
4451;DHT22;2238;50.180;9.230;2022-10-17T04:11:25;18.00;99.90
4451;DHT22;2238;50.180;9.230;2022-10-17T04:17:29;17.90;99.90
4451;DHT22;2238;50.180;9.230;2022-10-17T04:20:30;17.90;99.90
4451;DHT22;2238;50.180;9.230;2022-10-17T04:23:31;17.80;99.90
4451;DHT22;2238;50.180;9.230;2022-10-17T04:26:31;17.70;99.90
4451;DHT22;2238;50.180;9.230;2022-10-17T04:29:32;17.40;99.90
4451;DHT22;2238;50.180;9.230;2022-10-17T04:32:36;17.20;99.90
4451;DHT22;2238;50.180;9.230;2022-10-17T04:35:37;17.00;99.90
4451;DHT22;2238;50.180;9.230;2022-10-17T04:38:38;17.00;99.90
4451;DHT22;2238;50.180;9.230;2022-10-17T04:41:39;17.00;99.90
4451;DHT22;2238;50.180;9.230;2022-10-17T04:44:40;16.60;99.90
4451;DHT22;2238;50.180;9.230;2022-10-17T04:47:43;16.60;99.90
4451;DHT22;2238;50.180;9.230;2022-10-17T04:50:55;17.80;99.90
4451;DHT22;2238;50.180;9.230;2022-10-17T04:53:56;16.60;99.90
4451;DHT22;2238;50.180;9.230;2022-10-17T04:56:57;16.40;99.90
4451;DHT22;2238;50.180;9.230;2022-10-17T04:59:57;16.30;99.90
4451;DHT22;2238;50.180;9.230;2022-10-17T05:02:58;16.30;99.90
4451;DHT22;2238;50.180;9.230;2022-10-17T05:06:02;16.40;99.90
4451;DHT22;2238;50.180;9.230;2022-10-17T05:09:03;16.60;99.90
4451;DHT22;2238;50.180;9.230;2022-10-17T05:12:04;16.80;99.90
4451;DHT22;2238;50.180;9.230;2022-10-17T05:15:05;17.20;99.90
4451;DHT22;2238;50.180;9.230;2022-10-17T05:21:07;17.10;99.90
4451;DHT22;2238;50.180;9.230;2022-10-17T05:24:09;17.00;99.90
4451;DHT22;2238;50.180;9.230;2022-10-17T05:27:10;16.70;99.90
4451;DHT22;2238;50.180;9.230;2022-10-17T05:30:11;16.30;99.90
4451;DHT22;2238;50.180;9.230;2022-10-17T05:33:12;16.20;99.90
4451;DHT22;2238;50.180;9.230;2022-10-17T05:36:12;16.20;99.90
4451;DHT22;2238;50.180;9.230;2022-10-17T05:42:18;16.00;99.90
4451;DHT22;2238;50.180;9.230;2022-10-17T05:45:19;15.90;99.90
4451;DHT22;2238;50.180;9.230;2022-10-17T05:48:20;15.90;99.90
4451;DHT22;2238;50.180;9.230;2022-10-17T05:51:21;16.10;99.90
4451;DHT22;2238;50.180;9.230;2022-10-17T05:57:25;15.70;99.90
4451;DHT22;2238;50.180;9.230;2022-10-17T06:00:26;16.00;99.90
4451;DHT22;2238;50.180;9.230;2022-10-17T06:09:29;15.90;99.90
4451;DHT22;2238;50.180;9.230;2022-10-17T06:12:29;16.00;99.90
4451;DHT22;2238;50.180;9.230;2022-10-17T06:18:31;16.60;99.90
4451;DHT22;2238;50.180;9.230;2022-10-17T06:21:32;16.40;99.90
4451;DHT22;2238;50.180;9.230;2022-10-17T06:27:36;16.20;99.90
4451;DHT22;2238;50.180;9.230;2022-10-17T06:30:38;16.10;99.90
4451;DHT22;2238;50.180;9.230;2022-10-17T06:33:39;16.20;99.90
4451;DHT22;2238;50.180;9.230;2022-10-17T06:36:40;16.30;99.90
4451;DHT22;2238;50.180;9.230;2022-10-17T06:39:41;16.50;99.90
4451;DHT22;2238;50.180;9.230;2022-10-17T06:42:42;16.50;99.90
4451;DHT22;2238;50.180;9.230;2022-10-17T06:45:47;16.40;99.90
4451;DHT22;2238;50.180;9.230;2022-10-17T06:48:47;16.40;99.90
4451;DHT22;2238;50.180;9.230;2022-10-17T06:51:48;16.50;99.90
4451;DHT22;2238;50.180;9.230;2022-10-17T06:54:49;16.60;99.90
4451;DHT22;2238;50.180;9.230;2022-10-17T06:57:54;16.70;99.90
4451;DHT22;2238;50.180;9.230;2022-10-17T07:01:02;16.90;99.90
4451;DHT22;2238;50.180;9.230;2022-10-17T07:04:03;17.10;99.90
4451;DHT22;2238;50.180;9.230;2022-10-17T07:07:04;17.20;99.90
4451;DHT22;2238;50.180;9.230;2022-10-17T07:10:05;17.50;99.90
4451;DHT22;2238;50.180;9.230;2022-10-17T07:13:08;17.50;99.90
4451;DHT22;2238;50.180;9.230;2022-10-17T07:16:08;17.50;99.90
4451;DHT22;2238;50.180;9.230;2022-10-17T07:19:09;18.10;99.90
4451;DHT22;2238;50.180;9.230;2022-10-17T07:22:11;18.40;99.90
4451;DHT22;2238;50.180;9.230;2022-10-17T07:25:12;18.40;99.90
4451;DHT22;2238;50.180;9.230;2022-10-17T07:28:16;20.90;99.90
4451;DHT22;2238;50.180;9.230;2022-10-17T07:31:17;18.60;99.90
4451;DHT22;2238;50.180;9.230;2022-10-17T07:34:18;21.90;99.90
4451;DHT22;2238;50.180;9.230;2022-10-17T07:37:19;18.80;99.90
4451;DHT22;2238;50.180;9.230;2022-10-17T07:40:20;19.70;99.90
4451;DHT22;2238;50.180;9.230;2022-10-17T07:43:21;20.30;99.90
4451;DHT22;2238;50.180;9.230;2022-10-17T07:46:21;20.20;99.90
4451;DHT22;2238;50.180;9.230;2022-10-17T07:49:22;20.80;99.90
4451;DHT22;2238;50.180;9.230;2022-10-17T07:52:23;20.90;99.90
4451;DHT22;2238;50.180;9.230;2022-10-17T07:55:23;21.40;99.90
4451;DHT22;2238;50.180;9.230;2022-10-17T07:58:24;21.30;99.90
4451;DHT22;2238;50.180;9.230;2022-10-17T08:07:29;22.10;99.90
4451;DHT22;2238;50.180;9.230;2022-10-17T08:10:29;22.30;99.90
4451;DHT22;2238;50.180;9.230;2022-10-17T08:13:30;21.90;99.90
4451;DHT22;2238;50.180;9.230;2022-10-17T08:19:32;22.40;99.90
4451;DHT22;2238;50.180;9.230;2022-10-17T08:22:33;22.90;99.90
4451;DHT22;2238;50.180;9.230;2022-10-17T08:25:34;22.40;99.90
4451;DHT22;2238;50.180;9.230;2022-10-17T08:28:38;22.70;99.90
4451;DHT22;2238;50.180;9.230;2022-10-17T08:37:41;23.20;99.90
4451;DHT22;2238;50.180;9.230;2022-10-17T08:40:42;23.80;99.90
4451;DHT22;2238;50.180;9.230;2022-10-17T08:43:58;23.60;99.90
4451;DHT22;2238;50.180;9.230;2022-10-17T08:47:04;21.60;99.90
4451;DHT22;2238;50.180;9.230;2022-10-17T08:50:11;24.20;99.90
4451;DHT22;2238;50.180;9.230;2022-10-17T08:53:46;24.20;99.90
4451;DHT22;2238;50.180;9.230;2022-10-17T08:56:49;23.80;99.90
4451;DHT22;2238;50.180;9.230;2022-10-17T08:59:53;23.60;99.90
4451;DHT22;2238;50.180;9.230;2022-10-17T09:07:28;23.40;99.90
4451;DHT22;2238;50.180;9.230;2022-10-17T09:10:40;23.50;99.90
4451;DHT22;2238;50.180;9.230;2022-10-17T09:13:35;23.50;99.90
4451;DHT22;2238;50.180;9.230;2022-10-17T09:20:15;23.60;99.90
4451;DHT22;2238;50.180;9.230;2022-10-17T09:23:26;23.50;99.90
4451;DHT22;2238;50.180;9.230;2022-10-17T09:26:29;23.20;99.90
4451;DHT22;2238;50.180;9.230;2022-10-17T09:29:29;23.10;99.90
4451;DHT22;2238;50.180;9.230;2022-10-17T09:32:31;23.50;99.90
4451;DHT22;2238;50.180;9.230;2022-10-17T09:35:31;23.60;99.90
4451;DHT22;2238;50.180;9.230;2022-10-17T09:38:38;23.50;99.90
4451;DHT22;2238;50.180;9.230;2022-10-17T09:41:53;25.80;99.90
4451;DHT22;2238;50.180;9.230;2022-10-17T09:51:06;24.50;99.90
4451;DHT22;2238;50.180;9.230;2022-10-17T09:54:19;22.90;99.90
4451;DHT22;2238;50.180;9.230;2022-10-17T09:57:21;22.80;99.90
4451;DHT22;2238;50.180;9.230;2022-10-17T10:00:28;23.00;99.90
4451;DHT22;2238;50.180;9.230;2022-10-17T10:03:29;22.50;99.90
4451;DHT22;2238;50.180;9.230;2022-10-17T10:06:30;22.10;99.90
4451;DHT22;2238;50.180;9.230;2022-10-17T10:09:33;22.90;99.90
4451;DHT22;2238;50.180;9.230;2022-10-17T10:12:37;22.40;99.90
4451;DHT22;2238;50.180;9.230;2022-10-17T10:15:40;22.80;99.90
4451;DHT22;2238;50.180;9.230;2022-10-17T10:18:42;22.90;99.90
4451;DHT22;2238;50.180;9.230;2022-10-17T10:21:54;23.40;99.90
4451;DHT22;2238;50.180;9.230;2022-10-17T10:25:21;23.40;99.90
4451;DHT22;2238;50.180;9.230;2022-10-17T10:28:25;23.60;99.90
4451;DHT22;2238;50.180;9.230;2022-10-17T10:31:37;23.60;99.90
4451;DHT22;2238;50.180;9.230;2022-10-17T10:52:32;24.20;99.90
4451;DHT22;2238;50.180;9.230;2022-10-17T10:55:59;24.50;99.90
4451;DHT22;2238;50.180;9.230;2022-10-17T10:59:14;24.60;99.90
4451;DHT22;2238;50.180;9.230;2022-10-17T11:03:07;24.40;99.90
4451;DHT22;2238;50.180;9.230;2022-10-17T11:06:01;24.80;99.90
4451;DHT22;2238;50.180;9.230;2022-10-17T11:12:56;24.70;99.90
4451;DHT22;2238;50.180;9.230;2022-10-17T11:19:41;24.50;99.90
4451;DHT22;2238;50.180;9.230;2022-10-17T11:22:47;24.90;99.90
4451;DHT22;2238;50.180;9.230;2022-10-17T11:25:50;25.10;99.90
4451;DHT22;2238;50.180;9.230;2022-10-17T11:28:55;25.20;99.90
4451;DHT22;2238;50.180;9.230;2022-10-17T11:32:04;25.10;99.90
4451;DHT22;2238;50.180;9.230;2022-10-17T11:35:17;25.10;99.90
4451;DHT22;2238;50.180;9.230;2022-10-17T11:38:28;25.20;99.90
4451;DHT22;2238;50.180;9.230;2022-10-17T11:45:04;25.60;99.90
4451;DHT22;2238;50.180;9.230;2022-10-17T11:48:20;25.20;99.90
4451;DHT22;2238;50.180;9.230;2022-10-17T11:51:21;25.70;99.90
4451;DHT22;2238;50.180;9.230;2022-10-17T11:54:28;25.90;99.90
4451;DHT22;2238;50.180;9.230;2022-10-17T11:57:43;25.40;99.90
4451;DHT22;2238;50.180;9.230;2022-10-17T12:01:23;25.10;99.90
4451;DHT22;2238;50.180;9.230;2022-10-17T12:17:45;24.10;99.90
4451;DHT22;2238;50.180;9.230;2022-10-17T12:20:58;24.20;99.90
4451;DHT22;2238;50.180;9.230;2022-10-17T12:23:59;23.90;99.90
4451;DHT22;2238;50.180;9.230;2022-10-17T12:27:34;23.80;99.90
4451;DHT22;2238;50.180;9.230;2022-10-17T12:30:35;23.60;99.90
4451;DHT22;2238;50.180;9.230;2022-10-17T12:36:47;23.60;99.90
4451;DHT22;2238;50.180;9.230;2022-10-17T12:42:50;23.50;99.90
4451;DHT22;2238;50.180;9.230;2022-10-17T12:45:55;23.20;99.90
4451;DHT22;2238;50.180;9.230;2022-10-17T12:49:01;23.10;99.90
4451;DHT22;2238;50.180;9.230;2022-10-17T12:52:26;23.20;99.90
4451;DHT22;2238;50.180;9.230;2022-10-17T12:58:29;23.00;99.90
4451;DHT22;2238;50.180;9.230;2022-10-17T13:01:32;23.10;99.90
4451;DHT22;2238;50.180;9.230;2022-10-17T13:04:35;23.20;99.90
4451;DHT22;2238;50.180;9.230;2022-10-17T13:07:44;23.10;99.90
4451;DHT22;2238;50.180;9.230;2022-10-17T13:10:48;23.10;99.90
4451;DHT22;2238;50.180;9.230;2022-10-17T13:13:52;23.10;99.90
4451;DHT22;2238;50.180;9.230;2022-10-17T13:16:56;23.00;99.90
4451;DHT22;2238;50.180;9.230;2022-10-17T13:19:57;23.00;99.90
4451;DHT22;2238;50.180;9.230;2022-10-17T13:26:17;22.90;99.90
4451;DHT22;2238;50.180;9.230;2022-10-17T13:32:33;22.70;99.90
4451;DHT22;2238;50.180;9.230;2022-10-17T13:35:36;22.70;99.90
4451;DHT22;2238;50.180;9.230;2022-10-17T13:38:38;22.70;99.90
4451;DHT22;2238;50.180;9.230;2022-10-17T13:41:39;22.70;99.90
4451;DHT22;2238;50.180;9.230;2022-10-17T13:50:46;22.70;99.90
4451;DHT22;2238;50.180;9.230;2022-10-17T13:53:49;22.70;99.90
4451;DHT22;2238;50.180;9.230;2022-10-17T13:56:56;22.60;99.90
4451;DHT22;2238;50.180;9.230;2022-10-17T14:00:20;22.60;99.90
4451;DHT22;2238;50.180;9.230;2022-10-17T14:06:24;22.60;99.90
4451;DHT22;2238;50.180;9.230;2022-10-17T14:09:28;22.50;99.90
4451;DHT22;2238;50.180;9.230;2022-10-17T14:12:32;22.50;99.90
4451;DHT22;2238;50.180;9.230;2022-10-17T14:15:34;22.50;99.90
4451;DHT22;2238;50.180;9.230;2022-10-17T14:18:36;22.40;99.90
4451;DHT22;2238;50.180;9.230;2022-10-17T14:28:17;22.30;99.90
4451;DHT22;2238;50.180;9.230;2022-10-17T14:31:29;22.40;99.90
4451;DHT22;2238;50.180;9.230;2022-10-17T14:34:36;22.30;99.90
4451;DHT22;2238;50.180;9.230;2022-10-17T14:40:51;22.20;99.90
4451;DHT22;2238;50.180;9.230;2022-10-17T14:44:04;22.20;99.90
4451;DHT22;2238;50.180;9.230;2022-10-17T14:47:06;22.10;99.90
4451;DHT22;2238;50.180;9.230;2022-10-17T14:50:27;22.00;99.90
4451;DHT22;2238;50.180;9.230;2022-10-17T14:56:40;22.10;99.90
4451;DHT22;2238;50.180;9.230;2022-10-17T15:02:48;22.00;99.90
4451;DHT22;2238;50.180;9.230;2022-10-17T15:05:50;22.00;99.90
4451;DHT22;2238;50.180;9.230;2022-10-17T15:20:57;21.20;99.90
4451;DHT22;2238;50.180;9.230;2022-10-17T15:42:10;20.60;99.90
4451;DHT22;2238;50.180;9.230;2022-10-17T15:45:13;20.60;99.90
4451;DHT22;2238;50.180;9.230;2022-10-17T15:48:19;20.20;99.90
4451;DHT22;2238;50.180;9.230;2022-10-17T15:57:27;19.80;99.90
4451;DHT22;2238;50.180;9.230;2022-10-17T16:06:33;19.90;99.90
4451;DHT22;2238;50.180;9.230;2022-10-17T16:27:49;19.20;99.90
4451;DHT22;2238;50.180;9.230;2022-10-17T16:30:52;19.00;99.90
4451;DHT22;2238;50.180;9.230;2022-10-17T16:33:54;18.90;99.90
4451;DHT22;2238;50.180;9.230;2022-10-17T17:01:05;18.70;99.90
4451;DHT22;2238;50.180;9.230;2022-10-17T17:16:15;18.40;99.90
4451;DHT22;2238;50.180;9.230;2022-10-17T17:31:23;18.60;99.90
4451;DHT22;2238;50.180;9.230;2022-10-17T17:37:25;18.60;99.90
4451;DHT22;2238;50.180;9.230;2022-10-17T17:52:29;18.30;99.90
4451;DHT22;2238;50.180;9.230;2022-10-17T17:55:32;18.20;99.90
4451;DHT22;2238;50.180;9.230;2022-10-17T17:58:33;17.90;99.90
4451;DHT22;2238;50.180;9.230;2022-10-17T18:07:38;18.10;99.90
4451;DHT22;2238;50.180;9.230;2022-10-17T18:19:43;18.30;99.90
4451;DHT22;2238;50.180;9.230;2022-10-17T18:25:55;17.90;99.90
4451;DHT22;2238;50.180;9.230;2022-10-17T18:31:58;18.20;99.90
4451;DHT22;2238;50.180;9.230;2022-10-17T18:41:09;18.30;99.90
4451;DHT22;2238;50.180;9.230;2022-10-17T18:50:13;18.20;99.90
4451;DHT22;2238;50.180;9.230;2022-10-17T18:56:17;17.70;99.90
4451;DHT22;2238;50.180;9.230;2022-10-17T18:59:18;17.80;99.90
4451;DHT22;2238;50.180;9.230;2022-10-17T19:11:24;17.50;99.90
4451;DHT22;2238;50.180;9.230;2022-10-17T19:26:34;17.60;99.90
4451;DHT22;2238;50.180;9.230;2022-10-17T19:41:42;17.20;99.90
4451;DHT22;2238;50.180;9.230;2022-10-17T20:17:55;16.90;99.90
4451;DHT22;2238;50.180;9.230;2022-10-17T20:21:03;17.10;99.90
4451;DHT22;2238;50.180;9.230;2022-10-17T20:24:06;17.10;99.90
4451;DHT22;2238;50.180;9.230;2022-10-17T20:30:09;16.80;99.90
4451;DHT22;2238;50.180;9.230;2022-10-17T20:36:13;17.10;99.90
4451;DHT22;2238;50.180;9.230;2022-10-17T20:39:15;16.90;99.90
4451;DHT22;2238;50.180;9.230;2022-10-17T20:51:20;16.90;99.90
4451;DHT22;2238;50.180;9.230;2022-10-17T21:21:33;17.40;99.90
4451;DHT22;2238;50.180;9.230;2022-10-17T21:36:38;17.10;99.90
4451;DHT22;2238;50.180;9.230;2022-10-17T21:48:42;17.10;99.90
4451;DHT22;2238;50.180;9.230;2022-10-17T22:03:50;17.10;99.90
4451;DHT22;2238;50.180;9.230;2022-10-17T22:12:53;17.10;99.90
4451;DHT22;2238;50.180;9.230;2022-10-17T22:16:02;17.20;99.90
4451;DHT22;2238;50.180;9.230;2022-10-17T22:19:05;17.20;99.90
4451;DHT22;2238;50.180;9.230;2022-10-17T22:25:07;17.00;99.90
4451;DHT22;2238;50.180;9.230;2022-10-17T22:28:08;17.10;99.90
4451;DHT22;2238;50.180;9.230;2022-10-17T22:34:12;17.30;99.90
4451;DHT22;2238;50.180;9.230;2022-10-17T22:43:16;17.10;99.90
4451;DHT22;2238;50.180;9.230;2022-10-17T23:01:23;16.90;99.90
4451;DHT22;2238;50.180;9.230;2022-10-17T23:07:25;17.10;99.90
4451;DHT22;2238;50.180;9.230;2022-10-17T23:25:34;17.00;99.90
4451;DHT22;2238;50.180;9.230;2022-10-17T23:37:37;17.10;99.90
